sensor_id;sensor_type;location;lat;lon;timestamp;pressure;altitude;pressure_sealevel;temperature;humidity
51321;BME280;38732;49.556;6.286;2023-02-08T00:01:20;101686.88;;;1.11;64.17
51321;BME280;38732;49.556;6.286;2023-02-08T00:03:49;101690.97;;;1.09;63.89
51321;BME280;38732;49.556;6.286;2023-02-08T00:06:18;101690.97;;;1.09;62.92
51321;BME280;38732;49.556;6.286;2023-02-08T00:08:46;101687.41;;;0.95;61.23
51321;BME280;38732;49.556;6.286;2023-02-08T00:11:14;101678.09;;;0.84;61.51
51321;BME280;38732;49.556;6.286;2023-02-08T00:13:43;101689.16;;;0.84;62.58
51321;BME280;38732;49.556;6.286;2023-02-08T00:16:13;101692.25;;;0.92;62.92
51321;BME280;38732;49.556;6.286;2023-02-08T00:18:41;101685.63;;;0.94;64.43
51321;BME280;38732;49.556;6.286;2023-02-08T00:21:12;101682.00;;;0.91;64.04
51321;BME280;38732;49.556;6.286;2023-02-08T00:23:41;101680.22;;;1.01;65.36
51321;BME280;38732;49.556;6.286;2023-02-08T00:26:09;101681.34;;;0.93;63.76
51321;BME280;38732;49.556;6.286;2023-02-08T00:28:38;101680.19;;;0.78;61.43
51321;BME280;38732;49.556;6.286;2023-02-08T00:31:06;101672.09;;;0.72;62.91
51321;BME280;38732;49.556;6.286;2023-02-08T00:33:34;101676.88;;;0.79;64.68
51321;BME280;38732;49.556;6.286;2023-02-08T00:36:05;101671.91;;;0.80;64.66
51321;BME280;38732;49.556;6.286;2023-02-08T00:38:34;101667.91;;;0.84;65.01
51321;BME280;38732;49.556;6.286;2023-02-08T00:41:03;101659.28;;;0.82;64.31
51321;BME280;38732;49.556;6.286;2023-02-08T00:43:31;101662.50;;;0.79;63.27
51321;BME280;38732;49.556;6.286;2023-02-08T00:46:00;101665.28;;;0.82;63.63
51321;BME280;38732;49.556;6.286;2023-02-08T00:48:28;101666.47;;;0.76;64.05
51321;BME280;38732;49.556;6.286;2023-02-08T00:51:02;101666.00;;;0.70;62.52
51321;BME280;38732;49.556;6.286;2023-02-08T00:53:35;101664.47;;;0.72;63.11
51321;BME280;38732;49.556;6.286;2023-02-08T00:56:04;101663.88;;;0.64;62.70
51321;BME280;38732;49.556;6.286;2023-02-08T00:58:33;101664.31;;;0.58;63.28
51321;BME280;38732;49.556;6.286;2023-02-08T01:01:02;101664.63;;;0.51;63.76
51321;BME280;38732;49.556;6.286;2023-02-08T01:03:33;101673.78;;;0.49;64.62
51321;BME280;38732;49.556;6.286;2023-02-08T01:06:04;101666.50;;;0.54;64.99
51321;BME280;38732;49.556;6.286;2023-02-08T01:08:33;101668.41;;;0.56;64.64
51321;BME280;38732;49.556;6.286;2023-02-08T01:11:10;101671.00;;;0.46;63.70
51321;BME280;38732;49.556;6.286;2023-02-08T01:13:40;101664.81;;;0.42;63.95
51321;BME280;38732;49.556;6.286;2023-02-08T01:16:11;101667.72;;;0.25;63.92
51321;BME280;38732;49.556;6.286;2023-02-08T01:18:40;101672.84;;;0.37;65.94
51321;BME280;38732;49.556;6.286;2023-02-08T01:21:12;101677.63;;;0.44;66.55
51321;BME280;38732;49.556;6.286;2023-02-08T01:23:42;101671.38;;;0.29;62.72
51321;BME280;38732;49.556;6.286;2023-02-08T01:26:12;101668.03;;;0.18;63.43
51321;BME280;38732;49.556;6.286;2023-02-08T01:28:40;101660.41;;;0.18;64.57
51321;BME280;38732;49.556;6.286;2023-02-08T01:31:18;101655.31;;;0.18;64.12
51321;BME280;38732;49.556;6.286;2023-02-08T01:33:47;101654.78;;;0.22;64.44
51321;BME280;38732;49.556;6.286;2023-02-08T01:36:16;101654.03;;;0.23;65.51
51321;BME280;38732;49.556;6.286;2023-02-08T01:38:44;101654.59;;;0.31;65.68
51321;BME280;38732;49.556;6.286;2023-02-08T01:41:20;101654.69;;;0.32;65.23
51321;BME280;38732;49.556;6.286;2023-02-08T01:46:30;101649.88;;;0.35;65.25
51321;BME280;38732;49.556;6.286;2023-02-08T01:49:15;101658.91;;;0.32;65.14
51321;BME280;38732;49.556;6.286;2023-02-08T01:51:50;101658.09;;;0.21;65.07
51321;BME280;38732;49.556;6.286;2023-02-08T01:54:23;101653.31;;;0.14;63.83
51321;BME280;38732;49.556;6.286;2023-02-08T01:56:53;101657.78;;;0.06;64.11
51321;BME280;38732;49.556;6.286;2023-02-08T01:59:29;101655.69;;;0.01;64.34
51321;BME280;38732;49.556;6.286;2023-02-08T02:02:01;101663.69;;;-0.05;64.98
51321;BME280;38732;49.556;6.286;2023-02-08T02:04:31;101659.75;;;-0.02;65.34
51321;BME280;38732;49.556;6.286;2023-02-08T02:07:00;101649.06;;;0.03;64.56
51321;BME280;38732;49.556;6.286;2023-02-08T02:09:40;101650.47;;;-0.01;65.19
51321;BME280;38732;49.556;6.286;2023-02-08T02:12:10;101641.69;;;0.06;66.74
51321;BME280;38732;49.556;6.286;2023-02-08T02:14:39;101642.69;;;0.08;66.52
51321;BME280;38732;49.556;6.286;2023-02-08T02:17:10;101643.44;;;0.07;66.00
51321;BME280;38732;49.556;6.286;2023-02-08T02:20:01;101640.09;;;0.18;66.74
51321;BME280;38732;49.556;6.286;2023-02-08T02:25:26;101639.38;;;0.09;65.92
51321;BME280;38732;49.556;6.286;2023-02-08T02:28:00;101636.63;;;0.17;65.92
51321;BME280;38732;49.556;6.286;2023-02-08T02:30:42;101637.28;;;0.15;66.02
51321;BME280;38732;49.556;6.286;2023-02-08T02:33:35;101639.59;;;0.12;65.38
51321;BME280;38732;49.556;6.286;2023-02-08T02:36:44;101635.66;;;0.15;66.22
51321;BME280;38732;49.556;6.286;2023-02-08T02:39:37;101635.47;;;0.02;65.14
51321;BME280;38732;49.556;6.286;2023-02-08T02:42:16;101640.72;;;-0.07;65.17
51321;BME280;38732;49.556;6.286;2023-02-08T02:45:04;101644.66;;;-0.10;64.89
51321;BME280;38732;49.556;6.286;2023-02-08T02:47:39;101642.03;;;-0.12;65.04
51321;BME280;38732;49.556;6.286;2023-02-08T02:55:33;101629.56;;;-0.09;65.97
51321;BME280;38732;49.556;6.286;2023-02-08T02:58:04;101629.03;;;-0.05;65.63
51321;BME280;38732;49.556;6.286;2023-02-08T03:00:33;101629.28;;;-0.02;65.60
51321;BME280;38732;49.556;6.286;2023-02-08T03:03:02;101619.69;;;0.06;64.28
51321;BME280;38732;49.556;6.286;2023-02-08T03:05:30;101618.25;;;0.10;62.92
51321;BME280;38732;49.556;6.286;2023-02-08T03:08:23;101617.97;;;0.17;63.75
51321;BME280;38732;49.556;6.286;2023-02-08T03:13:53;101607.75;;;0.27;63.18
51321;BME280;38732;49.556;6.286;2023-02-08T03:16:54;101607.00;;;0.40;61.49
51321;BME280;38732;49.556;6.286;2023-02-08T03:22:37;101613.91;;;0.53;60.57
51321;BME280;38732;49.556;6.286;2023-02-08T03:25:16;101609.63;;;0.63;61.13
51321;BME280;38732;49.556;6.286;2023-02-08T03:27:58;101609.97;;;0.68;60.87
51321;BME280;38732;49.556;6.286;2023-02-08T03:33:37;101619.34;;;0.69;60.95
51321;BME280;38732;49.556;6.286;2023-02-08T03:36:13;101614.94;;;0.67;60.94
51321;BME280;38732;49.556;6.286;2023-02-08T03:38:46;101605.56;;;0.66;61.55
51321;BME280;38732;49.556;6.286;2023-02-08T03:41:21;101616.28;;;0.73;60.92
51321;BME280;38732;49.556;6.286;2023-02-08T03:43:59;101614.50;;;0.72;61.66
51321;BME280;38732;49.556;6.286;2023-02-08T03:46:33;101609.63;;;0.63;61.41
51321;BME280;38732;49.556;6.286;2023-02-08T03:49:13;101614.84;;;0.65;62.40
51321;BME280;38732;49.556;6.286;2023-02-08T03:51:44;101620.91;;;0.67;60.82
51321;BME280;38732;49.556;6.286;2023-02-08T03:54:18;101614.19;;;0.68;62.73
51321;BME280;38732;49.556;6.286;2023-02-08T03:57:20;101609.97;;;0.68;61.20
51321;BME280;38732;49.556;6.286;2023-02-08T03:59:57;101618.25;;;0.66;61.37
51321;BME280;38732;49.556;6.286;2023-02-08T04:02:32;101625.53;;;0.61;61.41
51321;BME280;38732;49.556;6.286;2023-02-08T04:05:03;101610.38;;;0.51;61.92
51321;BME280;38732;49.556;6.286;2023-02-08T04:07:32;101610.06;;;0.58;61.67
51321;BME280;38732;49.556;6.286;2023-02-08T04:10:01;101612.28;;;0.65;62.07
51321;BME280;38732;49.556;6.286;2023-02-08T04:12:30;101605.19;;;0.61;62.21
51321;BME280;38732;49.556;6.286;2023-02-08T04:14:58;101611.81;;;0.59;62.95
51321;BME280;38732;49.556;6.286;2023-02-08T04:17:26;101604.53;;;0.63;62.66
51321;BME280;38732;49.556;6.286;2023-02-08T04:19:54;101600.16;;;0.73;60.23
51321;BME280;38732;49.556;6.286;2023-02-08T04:22:22;101593.75;;;0.78;58.61
51321;BME280;38732;49.556;6.286;2023-02-08T04:24:51;101595.38;;;0.77;58.67
51321;BME280;38732;49.556;6.286;2023-02-08T04:27:19;101598.25;;;0.82;58.37
51321;BME280;38732;49.556;6.286;2023-02-08T04:29:47;101595.31;;;0.88;57.93
51321;BME280;38732;49.556;6.286;2023-02-08T04:32:16;101590.44;;;0.91;57.33
51321;BME280;38732;49.556;6.286;2023-02-08T04:34:44;101591.53;;;0.94;58.00
51321;BME280;38732;49.556;6.286;2023-02-08T04:37:12;101588.44;;;0.98;56.90
51321;BME280;38732;49.556;6.286;2023-02-08T04:39:40;101588.53;;;1.00;57.98
51321;BME280;38732;49.556;6.286;2023-02-08T04:42:08;101591.88;;;0.99;57.06
51321;BME280;38732;49.556;6.286;2023-02-08T04:44:37;101584.78;;;1.06;57.80
51321;BME280;38732;49.556;6.286;2023-02-08T04:47:05;101580.72;;;1.08;57.09
51321;BME280;38732;49.556;6.286;2023-02-08T04:49:33;101580.72;;;1.08;57.48
51321;BME280;38732;49.556;6.286;2023-02-08T04:52:02;101577.94;;;1.17;56.04
51321;BME280;38732;49.556;6.286;2023-02-08T04:54:30;101581.81;;;1.12;56.79
51321;BME280;38732;49.556;6.286;2023-02-08T04:56:58;101579.16;;;1.11;56.82
51321;BME280;38732;49.556;6.286;2023-02-08T04:59:26;101582.72;;;1.13;56.64
51321;BME280;38732;49.556;6.286;2023-02-08T05:01:54;101582.47;;;1.10;58.18
51321;BME280;38732;49.556;6.286;2023-02-08T05:04:23;101588.13;;;1.05;57.83
51321;BME280;38732;49.556;6.286;2023-02-08T05:06:51;101590.34;;;1.01;58.29
51321;BME280;38732;49.556;6.286;2023-02-08T05:09:19;101584.91;;;0.96;57.79
51321;BME280;38732;49.556;6.286;2023-02-08T05:11:47;101578.81;;;0.94;58.92
51321;BME280;38732;49.556;6.286;2023-02-08T05:14:15;101582.25;;;0.95;58.48
51321;BME280;38732;49.556;6.286;2023-02-08T05:16:44;101586.44;;;0.94;57.98
51321;BME280;38732;49.556;6.286;2023-02-08T05:19:12;101590.44;;;0.91;58.40
51321;BME280;38732;49.556;6.286;2023-02-08T05:21:40;101581.47;;;0.84;59.06
51321;BME280;38732;49.556;6.286;2023-02-08T05:24:08;101586.78;;;0.87;59.44
51321;BME280;38732;49.556;6.286;2023-02-08T05:26:38;101581.03;;;0.78;61.21
51321;BME280;38732;49.556;6.286;2023-02-08T05:29:06;101590.97;;;0.86;59.42
51321;BME280;38732;49.556;6.286;2023-02-08T05:31:35;101576.91;;;0.80;58.69
51321;BME280;38732;49.556;6.286;2023-02-08T05:34:03;101578.16;;;0.85;57.85
51321;BME280;38732;49.556;6.286;2023-02-08T05:36:31;101580.59;;;0.83;59.25
51321;BME280;38732;49.556;6.286;2023-02-08T05:39:00;101579.47;;;0.80;58.78
51321;BME280;38732;49.556;6.286;2023-02-08T05:41:28;101583.34;;;0.86;56.30
51321;BME280;38732;49.556;6.286;2023-02-08T05:43:56;101583.91;;;0.82;57.54
51321;BME280;38732;49.556;6.286;2023-02-08T05:46:24;101582.13;;;0.81;56.79
51321;BME280;38732;49.556;6.286;2023-02-08T05:48:53;101583.56;;;0.78;57.05
51321;BME280;38732;49.556;6.286;2023-02-08T05:51:21;101580.38;;;0.80;57.96
51321;BME280;38732;49.556;6.286;2023-02-08T05:53:49;101575.28;;;0.80;57.02
51321;BME280;38732;49.556;6.286;2023-02-08T05:56:17;101578.94;;;0.84;57.43
51321;BME280;38732;49.556;6.286;2023-02-08T05:58:46;101589.75;;;0.81;56.79
51321;BME280;38732;49.556;6.286;2023-02-08T06:01:14;101581.38;;;0.82;58.35
51321;BME280;38732;49.556;6.286;2023-02-08T06:03:42;101596.81;;;0.74;58.63
51321;BME280;38732;49.556;6.286;2023-02-08T06:06:10;101594.06;;;0.71;58.52
51321;BME280;38732;49.556;6.286;2023-02-08T06:08:38;101593.38;;;0.61;59.42
51321;BME280;38732;49.556;6.286;2023-02-08T06:11:07;101596.22;;;0.54;59.04
51321;BME280;38732;49.556;6.286;2023-02-08T06:13:35;101591.72;;;0.62;58.94
51321;BME280;38732;49.556;6.286;2023-02-08T06:16:04;101597.88;;;0.54;60.04
51321;BME280;38732;49.556;6.286;2023-02-08T06:18:33;101591.63;;;0.60;58.45
51321;BME280;38732;49.556;6.286;2023-02-08T06:21:01;101595.03;;;0.61;58.85
51321;BME280;38732;49.556;6.286;2023-02-08T06:23:29;101597.13;;;0.67;60.15
51321;BME280;38732;49.556;6.286;2023-02-08T06:25:58;101603.88;;;0.66;60.09
51321;BME280;38732;49.556;6.286;2023-02-08T06:28:26;101612.97;;;0.62;58.94
51321;BME280;38732;49.556;6.286;2023-02-08T06:30:54;101609.97;;;0.68;58.52
51321;BME280;38732;49.556;6.286;2023-02-08T06:33:22;101609.75;;;0.65;58.78
51321;BME280;38732;49.556;6.286;2023-02-08T06:35:51;101616.16;;;0.72;57.54
51321;BME280;38732;49.556;6.286;2023-02-08T06:38:19;101606.69;;;0.81;57.06
51321;BME280;38732;49.556;6.286;2023-02-08T06:40:48;101611.75;;;0.81;59.03
51321;BME280;38732;49.556;6.286;2023-02-08T06:43:17;101618.84;;;0.85;58.24
51321;BME280;38732;49.556;6.286;2023-02-08T06:45:45;101618.41;;;0.91;58.53
51321;BME280;38732;49.556;6.286;2023-02-08T06:48:13;101617.28;;;0.87;56.35
51321;BME280;38732;49.556;6.286;2023-02-08T06:50:42;101626.56;;;0.86;57.20
51321;BME280;38732;49.556;6.286;2023-02-08T06:53:10;101618.84;;;0.97;55.50
51321;BME280;38732;49.556;6.286;2023-02-08T06:55:38;101620.84;;;0.89;55.22
51321;BME280;38732;49.556;6.286;2023-02-08T06:58:06;101618.50;;;0.92;57.44
51321;BME280;38732;49.556;6.286;2023-02-08T07:00:34;101621.72;;;0.90;56.78
51321;BME280;38732;49.556;6.286;2023-02-08T07:03:03;101620.41;;;0.83;55.89
51321;BME280;38732;49.556;6.286;2023-02-08T07:05:33;101621.94;;;0.81;55.75
51321;BME280;38732;49.556;6.286;2023-02-08T07:08:02;101612.66;;;0.81;56.94
51321;BME280;38732;49.556;6.286;2023-02-08T07:10:31;101621.16;;;0.82;57.31
51321;BME280;38732;49.556;6.286;2023-02-08T07:13:02;101620.28;;;0.81;58.85
51321;BME280;38732;49.556;6.286;2023-02-08T07:15:31;101616.84;;;0.81;59.96
51321;BME280;38732;49.556;6.286;2023-02-08T07:17:59;101615.28;;;0.71;59.66
51321;BME280;38732;49.556;6.286;2023-02-08T07:20:28;101623.03;;;0.73;59.86
51321;BME280;38732;49.556;6.286;2023-02-08T07:22:56;101621.56;;;0.64;58.93
51321;BME280;38732;49.556;6.286;2023-02-08T07:25:24;101622.78;;;0.70;59.57
51321;BME280;38732;49.556;6.286;2023-02-08T07:27:52;101624.44;;;0.69;60.20
51321;BME280;38732;49.556;6.286;2023-02-08T07:30:20;101617.47;;;0.67;58.95
51321;BME280;38732;49.556;6.286;2023-02-08T07:32:49;101624.44;;;0.69;58.14
51321;BME280;38732;49.556;6.286;2023-02-08T07:35:17;101623.69;;;0.70;58.69
51321;BME280;38732;49.556;6.286;2023-02-08T07:37:45;101632.41;;;0.74;58.50
51321;BME280;38732;49.556;6.286;2023-02-08T07:40:13;101623.69;;;0.82;58.73
51321;BME280;38732;49.556;6.286;2023-02-08T07:42:41;101624.50;;;0.93;57.18
51321;BME280;38732;49.556;6.286;2023-02-08T07:45:10;101621.50;;;0.98;58.44
51321;BME280;38732;49.556;6.286;2023-02-08T07:47:38;101623.53;;;1.02;58.96
51321;BME280;38732;49.556;6.286;2023-02-08T07:50:06;101621.41;;;1.08;57.69
51321;BME280;38732;49.556;6.286;2023-02-08T07:52:35;101615.56;;;1.21;56.83
51321;BME280;38732;49.556;6.286;2023-02-08T07:55:03;101617.56;;;1.25;58.20
51321;BME280;38732;49.556;6.286;2023-02-08T07:57:32;101616.09;;;1.29;58.74
51321;BME280;38732;49.556;6.286;2023-02-08T08:00:00;101617.22;;;1.33;57.82
51321;BME280;38732;49.556;6.286;2023-02-08T08:02:28;101609.69;;;1.34;57.41
51321;BME280;38732;49.556;6.286;2023-02-08T08:04:57;101610.22;;;1.42;58.39
51321;BME280;38732;49.556;6.286;2023-02-08T08:07:25;101603.91;;;1.48;57.74
51321;BME280;38732;49.556;6.286;2023-02-08T08:09:53;101599.72;;;1.49;57.43
51321;BME280;38732;49.556;6.286;2023-02-08T08:12:21;101597.91;;;1.60;57.23
51321;BME280;38732;49.556;6.286;2023-02-08T08:14:51;101595.59;;;1.63;58.86
51321;BME280;38732;49.556;6.286;2023-02-08T08:17:19;101603.66;;;1.69;58.54
51321;BME280;38732;49.556;6.286;2023-02-08T08:19:47;101602.44;;;1.76;58.62
51321;BME280;38732;49.556;6.286;2023-02-08T08:22:15;101600.63;;;1.86;58.08
51321;BME280;38732;49.556;6.286;2023-02-08T08:24:44;101604.81;;;1.98;57.25
51321;BME280;38732;49.556;6.286;2023-02-08T08:27:12;101592.47;;;2.04;59.11
51321;BME280;38732;49.556;6.286;2023-02-08T08:29:40;101593.13;;;2.13;57.31
51321;BME280;38732;49.556;6.286;2023-02-08T08:32:08;101595.38;;;2.22;55.85
51321;BME280;38732;49.556;6.286;2023-02-08T08:34:36;101591.59;;;2.28;55.02
51321;BME280;38732;49.556;6.286;2023-02-08T08:37:08;101593.78;;;2.35;54.28
51321;BME280;38732;49.556;6.286;2023-02-08T08:39:36;101589.53;;;2.48;53.20
51321;BME280;38732;49.556;6.286;2023-02-08T08:42:04;101592.88;;;2.60;52.71
51321;BME280;38732;49.556;6.286;2023-02-08T08:44:32;101585.63;;;2.66;54.14
51321;BME280;38732;49.556;6.286;2023-02-08T08:47:01;101580.34;;;2.76;52.18
51321;BME280;38732;49.556;6.286;2023-02-08T08:49:29;101589.41;;;2.85;51.28
51321;BME280;38732;49.556;6.286;2023-02-08T08:51:58;101584.38;;;2.86;53.64
51321;BME280;38732;49.556;6.286;2023-02-08T08:54:26;101580.75;;;2.96;52.41
51321;BME280;38732;49.556;6.286;2023-02-08T08:56:54;101569.06;;;2.99;51.68
51321;BME280;38732;49.556;6.286;2023-02-08T08:59:22;101567.91;;;3.08;51.81
51321;BME280;38732;49.556;6.286;2023-02-08T09:01:51;101567.59;;;3.16;51.49
51321;BME280;38732;49.556;6.286;2023-02-08T09:04:19;101567.50;;;3.28;53.55
51321;BME280;38732;49.556;6.286;2023-02-08T09:06:48;101561.59;;;3.29;51.71
51321;BME280;38732;49.556;6.286;2023-02-08T09:09:17;101555.13;;;3.34;52.20
51321;BME280;38732;49.556;6.286;2023-02-08T09:11:46;101559.06;;;3.42;50.47
51321;BME280;38732;49.556;6.286;2023-02-08T09:14:15;101553.72;;;3.53;48.04
51321;BME280;38732;49.556;6.286;2023-02-08T09:16:43;101560.06;;;3.59;48.61
51321;BME280;38732;49.556;6.286;2023-02-08T09:19:12;101554.78;;;3.70;46.11
51321;BME280;38732;49.556;6.286;2023-02-08T09:21:41;101552.88;;;3.80;47.95
51321;BME280;38732;49.556;6.286;2023-02-08T09:24:09;101553.69;;;3.94;45.71
51321;BME280;38732;49.556;6.286;2023-02-08T09:26:38;101559.25;;;4.02;45.51
51321;BME280;38732;49.556;6.286;2023-02-08T09:29:06;101560.78;;;4.13;45.86
51321;BME280;38732;49.556;6.286;2023-02-08T09:31:35;101550.91;;;4.04;46.33
51321;BME280;38732;49.556;6.286;2023-02-08T09:34:04;101553.59;;;4.21;45.52
51321;BME280;38732;49.556;6.286;2023-02-08T09:36:36;101552.72;;;4.20;44.91
51321;BME280;38732;49.556;6.286;2023-02-08T09:39:14;101545.47;;;4.28;44.75
51321;BME280;38732;49.556;6.286;2023-02-08T09:47:18;101538.97;;;4.48;44.39
51321;BME280;38732;49.556;6.286;2023-02-08T09:49:56;101541.97;;;4.56;42.99
51321;BME280;38732;49.556;6.286;2023-02-08T09:52:34;101535.00;;;4.68;43.54
51321;BME280;38732;49.556;6.286;2023-02-08T09:57:57;101534.13;;;4.82;42.37
51321;BME280;38732;49.556;6.286;2023-02-08T10:00:35;101534.38;;;4.87;43.10
51321;BME280;38732;49.556;6.286;2023-02-08T10:06:06;101525.16;;;5.05;42.31
51321;BME280;38732;49.556;6.286;2023-02-08T10:08:36;101528.84;;;5.10;42.28
51321;BME280;38732;49.556;6.286;2023-02-08T10:11:25;101530.31;;;5.22;41.42
51321;BME280;38732;49.556;6.286;2023-02-08T10:14:07;101522.84;;;5.41;40.97
51321;BME280;38732;49.556;6.286;2023-02-08T10:16:52;101519.56;;;5.44;41.29
51321;BME280;38732;49.556;6.286;2023-02-08T10:22:28;101516.63;;;5.69;39.80
51321;BME280;38732;49.556;6.286;2023-02-08T10:25:12;101519.19;;;5.69;39.23
51321;BME280;38732;49.556;6.286;2023-02-08T10:28:21;101524.25;;;5.67;38.84
51321;BME280;38732;49.556;6.286;2023-02-08T10:34:00;101520.03;;;6.00;39.01
51321;BME280;38732;49.556;6.286;2023-02-08T10:36:33;101512.66;;;6.07;39.50
51321;BME280;38732;49.556;6.286;2023-02-08T10:39:12;101505.50;;;6.17;38.53
51321;BME280;38732;49.556;6.286;2023-02-08T10:41:43;101498.28;;;6.26;37.99
51321;BME280;38732;49.556;6.286;2023-02-08T10:49:54;101490.28;;;6.38;38.63
51321;BME280;38732;49.556;6.286;2023-02-08T10:52:25;101486.88;;;6.56;37.73
51321;BME280;38732;49.556;6.286;2023-02-08T10:54:54;101485.75;;;6.33;37.39
51321;BME280;38732;49.556;6.286;2023-02-08T10:57:31;101481.97;;;6.60;36.71
51321;BME280;38732;49.556;6.286;2023-02-08T11:00:03;101479.25;;;6.75;36.41
51321;BME280;38732;49.556;6.286;2023-02-08T11:02:36;101486.69;;;6.87;37.46
51321;BME280;38732;49.556;6.286;2023-02-08T11:05:19;101477.00;;;6.99;36.85
51321;BME280;38732;49.556;6.286;2023-02-08T11:08:04;101480.13;;;7.11;36.85
51321;BME280;38732;49.556;6.286;2023-02-08T11:10:33;101484.88;;;7.04;36.14
51321;BME280;38732;49.556;6.286;2023-02-08T11:13:18;101485.28;;;7.11;36.05
51321;BME280;38732;49.556;6.286;2023-02-08T11:15:51;101481.56;;;7.24;34.98
51321;BME280;38732;49.556;6.286;2023-02-08T11:18:40;101471.66;;;7.32;35.73
51321;BME280;38732;49.556;6.286;2023-02-08T11:21:23;101467.13;;;7.26;34.01
51321;BME280;38732;49.556;6.286;2023-02-08T11:23:54;101464.72;;;7.49;35.21
51321;BME280;38732;49.556;6.286;2023-02-08T11:31:31;101451.28;;;7.75;34.10
51321;BME280;38732;49.556;6.286;2023-02-08T11:34:02;101455.25;;;7.88;34.10
51321;BME280;38732;49.556;6.286;2023-02-08T11:36:32;101448.03;;;7.80;33.77
51321;BME280;38732;49.556;6.286;2023-02-08T11:39:15;101452.25;;;7.77;34.10
51321;BME280;38732;49.556;6.286;2023-02-08T11:41:46;101445.59;;;7.83;33.59
51321;BME280;38732;49.556;6.286;2023-02-08T11:44:26;101439.28;;;7.95;33.80
51321;BME280;38732;49.556;6.286;2023-02-08T11:46:56;101436.44;;;8.09;33.22
51321;BME280;38732;49.556;6.286;2023-02-08T11:49:33;101442.22;;;8.24;33.97
51321;BME280;38732;49.556;6.286;2023-02-08T11:52:05;101438.25;;;8.11;33.12
51321;BME280;38732;49.556;6.286;2023-02-08T11:54:39;101438.38;;;8.35;33.65
51321;BME280;38732;49.556;6.286;2023-02-08T11:57:20;101434.25;;;8.39;32.93
51321;BME280;38732;49.556;6.286;2023-02-08T11:59:50;101429.63;;;8.51;32.86
51321;BME280;38732;49.556;6.286;2023-02-08T12:02:37;101424.69;;;8.57;33.15
51321;BME280;38732;49.556;6.286;2023-02-08T12:05:12;101427.84;;;8.50;32.28
51321;BME280;38732;49.556;6.286;2023-02-08T12:07:59;101423.38;;;8.67;32.03
51321;BME280;38732;49.556;6.286;2023-02-08T12:18:41;101417.47;;;8.92;31.93
51321;BME280;38732;49.556;6.286;2023-02-08T12:21:21;101412.78;;;9.04;31.22
51321;BME280;38732;49.556;6.286;2023-02-08T12:23:59;101405.72;;;9.23;31.76
51321;BME280;38732;49.556;6.286;2023-02-08T12:26:52;101404.66;;;8.94;31.61
51321;BME280;38732;49.556;6.286;2023-02-08T12:29:40;101405.78;;;9.24;31.08
51321;BME280;38732;49.556;6.286;2023-02-08T12:41:13;101383.47;;;9.49;30.88
51321;BME280;38732;49.556;6.286;2023-02-08T12:44:09;101376.25;;;9.39;30.89
51321;BME280;38732;49.556;6.286;2023-02-08T12:49:46;101372.28;;;9.48;30.82
51321;BME280;38732;49.556;6.286;2023-02-08T12:54:54;101359.84;;;9.62;31.07
51321;BME280;38732;49.556;6.286;2023-02-08T12:57:25;101358.03;;;9.84;30.62
51321;BME280;38732;49.556;6.286;2023-02-08T13:00:07;101353.50;;;9.78;29.58
51321;BME280;38732;49.556;6.286;2023-02-08T13:02:50;101343.06;;;9.74;30.24
51321;BME280;38732;49.556;6.286;2023-02-08T13:05:21;101344.22;;;9.83;28.64
51321;BME280;38732;49.556;6.286;2023-02-08T13:07:58;101335.06;;;9.91;29.85
51321;BME280;38732;49.556;6.286;2023-02-08T13:10:36;101335.22;;;9.96;28.67
51321;BME280;38732;49.556;6.286;2023-02-08T13:13:18;101328.34;;;9.97;30.33
51321;BME280;38732;49.556;6.286;2023-02-08T13:15:55;101329.50;;;10.06;30.59
51321;BME280;38732;49.556;6.286;2023-02-08T13:18:29;101321.63;;;10.02;29.83
51321;BME280;38732;49.556;6.286;2023-02-08T13:21:02;101320.59;;;10.24;29.23
51321;BME280;38732;49.556;6.286;2023-02-08T13:23:37;101321.94;;;10.12;29.51
51321;BME280;38732;49.556;6.286;2023-02-08T13:26:15;101315.38;;;10.22;29.97
51321;BME280;38732;49.556;6.286;2023-02-08T13:28:50;101317.22;;;10.26;28.89
51321;BME280;38732;49.556;6.286;2023-02-08T13:31:23;101308.28;;;10.42;29.00
51321;BME280;38732;49.556;6.286;2023-02-08T13:33:56;101302.09;;;10.37;29.60
51321;BME280;38732;49.556;6.286;2023-02-08T13:36:30;101304.59;;;10.34;28.31
51321;BME280;38732;49.556;6.286;2023-02-08T13:39:02;101310.84;;;10.42;28.87
51321;BME280;38732;49.556;6.286;2023-02-08T13:41:32;101299.03;;;10.50;28.68
51321;BME280;38732;49.556;6.286;2023-02-08T13:44:08;101304.75;;;10.40;27.99
51321;BME280;38732;49.556;6.286;2023-02-08T13:46:49;101304.13;;;10.47;28.03
51321;BME280;38732;49.556;6.286;2023-02-08T13:49:41;101306.22;;;10.61;28.25
51321;BME280;38732;49.556;6.286;2023-02-08T13:52:22;101296.00;;;10.64;29.19
51321;BME280;38732;49.556;6.286;2023-02-08T14:06:06;101294.00;;;10.84;26.01
51321;BME280;38732;49.556;6.286;2023-02-08T14:11:46;101282.75;;;11.47;24.59
51321;BME280;38732;49.556;6.286;2023-02-08T14:14:20;101276.50;;;12.06;24.13
51321;BME280;38732;49.556;6.286;2023-02-08T14:17:27;101279.06;;;12.87;25.16
51321;BME280;38732;49.556;6.286;2023-02-08T14:19:59;101271.63;;;13.04;23.61
51321;BME280;38732;49.556;6.286;2023-02-08T14:22:38;101274.94;;;13.42;22.31
51321;BME280;38732;49.556;6.286;2023-02-08T14:25:17;101276.50;;;13.84;22.72
51321;BME280;38732;49.556;6.286;2023-02-08T14:27:58;101270.59;;;13.94;21.84
51321;BME280;38732;49.556;6.286;2023-02-08T14:30:31;101269.84;;;14.01;20.77
51321;BME280;38732;49.556;6.286;2023-02-08T14:35:36;101260.69;;;14.94;21.11
51321;BME280;38732;49.556;6.286;2023-02-08T14:38:31;101259.63;;;15.63;19.74
51321;BME280;38732;49.556;6.286;2023-02-08T14:41:02;101249.19;;;15.63;19.87
51321;BME280;38732;49.556;6.286;2023-02-08T14:43:36;101253.50;;;15.60;19.52
51321;BME280;38732;49.556;6.286;2023-02-08T14:46:40;101255.44;;;15.82;20.48
51321;BME280;38732;49.556;6.286;2023-02-08T14:49:12;101251.31;;;16.13;20.03
51321;BME280;38732;49.556;6.286;2023-02-08T14:51:45;101254.88;;;16.28;19.96
51321;BME280;38732;49.556;6.286;2023-02-08T14:54:26;101254.84;;;16.25;18.80
51321;BME280;38732;49.556;6.286;2023-02-08T14:57:00;101253.03;;;16.08;18.38